TimeEST,TemperatureF,Dew PointF,Humidity,Sea Level PressureIn,VisibilityMPH,Wind Direction,Wind SpeedMPH,Gust SpeedMPH,PrecipitationIn,Events,Conditions,WindDirDegrees,DateUTC
12:53 AM,64.0,62.1,93,30.06,10.0,Calm,Calm,-,N/A,,Clear,0,2013-01-02 05:53:00
1:53 AM,63.0,62.1,97,30.05,10.0,Calm,Calm,-,N/A,,Clear,0,2013-01-02 06:53:00
2:53 AM,63.0,61.0,93,30.05,10.0,Calm,Calm,-,N/A,,Clear,0,2013-01-02 07:53:00
3:53 AM,60.1,59.0,96,30.05,10.0,Calm,Calm,-,N/A,,Clear,0,2013-01-02 08:53:00
4:53 AM,61.0,60.1,97,30.05,5.0,Calm,Calm,-,N/A,,Clear,0,2013-01-02 09:53:00
5:53 AM,62.1,61.0,96,30.06,10.0,Calm,Calm,-,N/A,,Mostly Cloudy,0,2013-01-02 10:53:00
6:53 AM,62.1,61.0,96,30.07,10.0,Calm,Calm,-,N/A,,Clear,0,2013-01-02 11:53:00
7:53 AM,64.0,63.0,96,30.08,10.0,Calm,Calm,-,N/A,,Clear,0,2013-01-02 12:53:00
8:53 AM,72.0,66.9,84,30.09,10.0,SSE,3.5,-,N/A,,Clear,150,2013-01-02 13:53:00
9:53 AM,75.9,64.9,69,30.11,10.0,South,8.1,-,N/A,,Clear,170,2013-01-02 14:53:00
10:53 AM,78.1,64.9,64,30.10,10.0,SSE,5.8,-,N/A,,Overcast,150,2013-01-02 15:53:00
11:53 AM,80.1,64.0,58,30.07,10.0,SE,3.5,-,N/A,,Mostly Cloudy,140,2013-01-02 16:53:00
12:53 PM,79.0,64.9,62,30.05,10.0,South,4.6,-,N/A,,Unknown,180,2013-01-02 17:53:00
1:53 PM,81.0,64.9,58,30.02,10.0,South,6.9,-,N/A,,Mostly Cloudy,170,2013-01-02 18:53:00
2:53 PM,79.0,66.0,64,30.01,10.0,SSE,6.9,-,N/A,,Partly Cloudy,160,2013-01-02 19:53:00
3:53 PM,77.0,66.0,69,30.01,10.0,SSE,8.1,-,N/A,,Clear,150,2013-01-02 20:53:00
4:53 PM,77.0,66.9,71,30.02,10.0,SE,9.2,-,N/A,,Scattered Clouds,130,2013-01-02 21:53:00
5:53 PM,73.9,66.0,76,30.03,10.0,SE,5.8,-,N/A,,Clear,140,2013-01-02 22:53:00
6:53 PM,73.9,66.9,79,30.04,10.0,SSE,5.8,-,N/A,,Mostly Cloudy,150,2013-01-02 23:53:00
7:53 PM,72.0,66.9,84,30.06,10.0,SE,3.5,-,N/A,,Clear,140,2013-01-03 00:53:00
8:53 PM,72.0,68.0,87,30.07,10.0,Calm,Calm,-,N/A,,Mostly Cloudy,0,2013-01-03 01:53:00
9:53 PM,71.1,66.9,87,30.08,10.0,Calm,Calm,-,N/A,,Mostly Cloudy,0,2013-01-03 02:53:00
10:53 PM,70.0,66.9,90,30.07,10.0,SSE,4.6,-,N/A,,Clear,150,2013-01-03 03:53:00
11:53 PM,68.0,66.0,93,30.07,10.0,North,3.5,-,N/A,,Mostly Cloudy,350,2013-01-03 04:53:00